createdAt,value
2023-04-19T00:01:17.055Z,7.11
2023-04-19T00:03:44.033Z,7.13
2023-04-19T00:06:10.999Z,7.10
2023-04-19T00:08:37.750Z,7.10
2023-04-19T00:11:04.421Z,7.12
2023-04-19T00:13:31.135Z,7.08
2023-04-19T00:15:57.911Z,7.14
2023-04-19T00:18:24.667Z,7.07
2023-04-19T00:20:51.390Z,7.09
2023-04-19T00:23:18.318Z,7.06
2023-04-19T00:25:49.222Z,7.11
2023-04-19T00:28:16.325Z,7.07
2023-04-19T00:30:43.150Z,7.01
2023-04-19T00:33:13.176Z,6.97
2023-04-19T00:35:42.869Z,7.02
2023-04-19T00:38:09.660Z,6.89
2023-04-19T00:40:37.522Z,6.97
2023-04-19T00:43:04.396Z,6.91
2023-04-19T00:45:32.906Z,6.85
2023-04-19T00:48:00.720Z,6.93
2023-04-19T00:50:27.692Z,6.95
2023-04-19T00:52:55.891Z,6.99
2023-04-19T00:55:23.631Z,7.04
2023-04-19T00:57:52.292Z,7.07
2023-04-19T01:00:20.114Z,7.03
2023-04-19T01:02:48.113Z,7.01
2023-04-19T01:05:15.244Z,7.00
2023-04-19T01:07:43.222Z,6.95
2023-04-19T01:10:10.417Z,6.96
2023-04-19T01:12:38.210Z,6.98
2023-04-19T01:15:05.511Z,7.00
2023-04-19T01:17:33.288Z,7.02
2023-04-19T01:20:01.201Z,6.95
2023-04-19T01:22:28.555Z,6.95
2023-04-19T01:24:56.162Z,6.96
2023-04-19T01:27:24.057Z,7.02
2023-04-19T01:29:50.794Z,6.94
2023-04-19T01:32:17.498Z,6.96
2023-04-19T01:34:44.313Z,6.90
2023-04-19T01:37:11.018Z,6.88
2023-04-19T01:39:37.779Z,6.82
2023-04-19T01:42:04.655Z,6.84
2023-04-19T01:44:31.715Z,6.84
2023-04-19T01:46:58.424Z,6.91
2023-04-19T01:49:25.200Z,6.92
2023-04-19T01:51:51.953Z,6.93
2023-04-19T01:54:18.764Z,6.92
2023-04-19T01:56:45.541Z,6.89
2023-04-19T01:59:12.252Z,6.90
2023-04-19T02:01:38.876Z,6.84
2023-04-19T02:04:05.797Z,6.88
2023-04-19T02:06:32.542Z,6.91
2023-04-19T02:08:59.264Z,6.87
2023-04-19T02:11:25.964Z,6.90
2023-04-19T02:13:52.668Z,6.90
2023-04-19T02:16:19.445Z,6.83
2023-04-19T02:18:46.945Z,6.72
2023-04-19T02:21:14.174Z,6.69
2023-04-19T02:23:40.860Z,6.71
2023-04-19T02:26:07.688Z,6.74
2023-04-19T02:28:34.407Z,6.76
2023-04-19T02:31:04.820Z,6.82
2023-04-19T02:33:31.580Z,6.86
2023-04-19T02:35:58.291Z,6.82
2023-04-19T02:38:25.060Z,6.86
2023-04-19T02:40:51.793Z,6.86
2023-04-19T02:43:18.589Z,6.82
2023-04-19T02:45:45.267Z,6.89
2023-04-19T02:48:12.027Z,6.86
2023-04-19T02:50:38.980Z,6.85
2023-04-19T02:53:06.003Z,6.73
2023-04-19T02:55:33.413Z,6.82
2023-04-19T02:58:00.253Z,6.75
2023-04-19T03:00:27.026Z,6.70
2023-04-19T03:02:54.011Z,6.75
2023-04-19T03:05:21.025Z,6.82
2023-04-19T03:07:47.814Z,6.81
2023-04-19T03:10:14.533Z,6.79
2023-04-19T03:12:41.237Z,6.78
2023-04-19T03:15:08.708Z,6.83
2023-04-19T03:17:36.081Z,6.74
2023-04-19T03:20:02.878Z,6.82
2023-04-19T03:22:29.575Z,6.81
2023-04-19T03:24:56.915Z,6.80
2023-04-19T03:27:23.758Z,6.77
2023-04-19T03:29:50.505Z,6.78
2023-04-19T03:32:17.233Z,6.76
2023-04-19T03:34:44.123Z,6.73
2023-04-19T03:37:11.175Z,6.74
2023-04-19T03:39:37.855Z,6.70
2023-04-19T03:42:04.776Z,6.67
2023-04-19T03:44:34.923Z,6.72
2023-04-19T03:47:01.590Z,6.74
2023-04-19T03:49:28.336Z,6.68
2023-04-19T03:51:55.102Z,6.70
2023-04-19T03:54:21.805Z,6.76
2023-04-19T03:56:48.622Z,6.75
2023-04-19T03:59:15.363Z,6.77
2023-04-19T04:01:42.563Z,6.78
2023-04-19T04:04:09.788Z,6.78
2023-04-19T04:06:36.760Z,6.76
2023-04-19T04:09:04.186Z,6.75
2023-04-19T04:11:30.995Z,6.74
2023-04-19T04:13:57.916Z,6.59
2023-04-19T04:16:24.751Z,6.65
2023-04-19T04:18:51.524Z,6.71
2023-04-19T04:21:18.208Z,6.65
2023-04-19T04:23:45.739Z,6.60
2023-04-19T04:26:13.919Z,6.62
2023-04-19T04:28:40.685Z,6.56
2023-04-19T04:31:07.350Z,6.57
2023-04-19T04:33:36.017Z,6.59
2023-04-19T04:36:02.887Z,6.57
2023-04-19T04:38:30.013Z,6.58
2023-04-19T04:40:56.924Z,6.57
2023-04-19T04:43:25.807Z,6.55
2023-04-19T04:45:55.775Z,6.60
2023-04-19T04:48:22.608Z,6.62
2023-04-19T04:50:49.368Z,6.63
2023-04-19T04:53:16.176Z,6.73
2023-04-19T04:55:42.878Z,6.78
2023-04-19T04:58:09.509Z,6.80
2023-04-19T05:00:36.601Z,6.81
2023-04-19T05:03:03.646Z,6.87
2023-04-19T05:05:30.841Z,6.83
2023-04-19T05:07:57.850Z,6.93
2023-04-19T05:10:24.717Z,6.95
2023-04-19T05:12:51.592Z,6.94
2023-04-19T05:15:18.567Z,6.98
2023-04-19T05:17:45.467Z,7.02
2023-04-19T05:20:12.352Z,6.99
2023-04-19T05:22:39.157Z,7.05
2023-04-19T05:25:06.668Z,7.00
2023-04-19T05:27:33.416Z,7.02
2023-04-19T05:30:00.186Z,7.02
2023-04-19T05:32:27.744Z,7.04
2023-04-19T05:34:54.557Z,7.01
2023-04-19T05:37:21.267Z,7.06
2023-04-19T05:39:47.968Z,7.17
2023-04-19T05:42:14.675Z,7.25
2023-04-19T05:44:41.468Z,7.23
2023-04-19T05:47:09.036Z,7.23
2023-04-19T05:49:36.109Z,7.27
2023-04-19T05:52:02.871Z,7.35
2023-04-19T05:54:34.541Z,7.33
2023-04-19T05:57:01.537Z,7.27
2023-04-19T05:59:28.573Z,7.35
2023-04-19T06:01:56.404Z,7.44
2023-04-19T06:04:23.551Z,7.45
2023-04-19T06:06:50.859Z,7.43
2023-04-19T06:09:18.690Z,7.54
2023-04-19T06:11:50.566Z,7.48
2023-04-19T06:14:18.508Z,7.60
2023-04-19T06:16:45.767Z,7.68
2023-04-19T06:19:12.580Z,7.68
2023-04-19T06:21:39.434Z,7.70
2023-04-19T06:24:07.360Z,7.71
2023-04-19T06:26:34.246Z,7.76
2023-04-19T06:29:01.447Z,7.97
2023-04-19T06:31:28.450Z,8.00
2023-04-19T06:33:55.148Z,8.19
2023-04-19T06:36:21.878Z,8.43
2023-04-19T06:38:50.181Z,8.44
2023-04-19T06:41:17.953Z,8.47
2023-04-19T06:43:45.036Z,8.47
2023-04-19T06:46:14.143Z,8.52
2023-04-19T06:48:41.217Z,8.61
2023-04-19T06:51:08.226Z,8.74
2023-04-19T06:53:35.797Z,8.61
2023-04-19T06:56:06.847Z,8.59
2023-04-19T06:58:35.084Z,8.66
2023-04-19T07:01:04.652Z,8.70
2023-04-19T07:03:31.996Z,8.67
2023-04-19T07:05:59.009Z,8.55
2023-04-19T07:08:42.387Z,8.42
2023-04-19T07:11:15.291Z,8.50
2023-04-19T07:13:42.006Z,8.58
2023-04-19T07:16:08.759Z,8.53
2023-04-19T07:18:35.492Z,8.53
2023-04-19T07:21:02.469Z,8.67
2023-04-19T07:23:30.979Z,8.84
2023-04-19T07:25:57.713Z,8.99
2023-04-19T07:28:24.531Z,9.05
2023-04-19T07:30:51.242Z,9.13
2023-04-19T07:33:18.092Z,9.09
2023-04-19T07:35:44.822Z,9.45
2023-04-19T07:38:11.533Z,9.47
2023-04-19T07:40:38.332Z,9.73
2023-04-19T07:43:05.047Z,9.87
2023-04-19T07:45:31.842Z,9.55
2023-04-19T07:47:58.626Z,9.71
2023-04-19T07:50:29.067Z,9.95
2023-04-19T07:52:56.840Z,9.71
2023-04-19T07:55:24.030Z,9.85
2023-04-19T07:57:51.014Z,9.97
2023-04-19T08:00:18.907Z,9.90
2023-04-19T08:02:46.730Z,9.93
2023-04-19T08:05:17.246Z,10.22
2023-04-19T08:07:44.859Z,10.40
2023-04-19T08:10:11.981Z,10.51
2023-04-19T08:12:47.336Z,10.86
2023-04-19T08:16:05.248Z,10.96
2023-04-19T08:18:11.184Z,10.79
2023-04-19T08:20:38.120Z,10.82
2023-04-19T08:23:18.097Z,10.49
2023-04-19T08:25:49.691Z,10.70
2023-04-19T08:28:17.239Z,10.62
2023-04-19T08:30:44.048Z,10.46
2023-04-19T08:33:13.700Z,10.47
2023-04-19T08:35:41.610Z,10.37
2023-04-19T08:38:09.043Z,10.21
2023-04-19T08:40:36.030Z,10.14
2023-04-19T08:43:07.392Z,10.33
2023-04-19T08:45:34.759Z,10.22
2023-04-19T08:48:03.335Z,10.00
2023-04-19T08:50:34.492Z,10.19
2023-04-19T08:53:21.080Z,10.21
2023-04-19T08:56:10.831Z,10.00
2023-04-19T08:58:57.957Z,9.96
2023-04-19T09:01:35.600Z,10.16
2023-04-19T09:04:21.514Z,10.07
2023-04-19T09:06:53.187Z,10.16
2023-04-19T09:09:34.062Z,10.32
2023-04-19T09:12:03.889Z,10.16
2023-04-19T09:14:30.728Z,10.07
2023-04-19T09:17:16.544Z,10.15
2023-04-19T09:19:48.101Z,10.29
2023-04-19T09:22:15.316Z,10.18
2023-04-19T09:27:12.496Z,10.55
2023-04-19T09:29:39.741Z,10.99
2023-04-19T09:32:06.631Z,10.93
2023-04-19T09:34:33.342Z,11.04
2023-04-19T09:37:17.755Z,11.15
2023-04-19T09:39:54.917Z,11.01
2023-04-19T09:42:38.615Z,10.82
2023-04-19T09:47:38.920Z,10.82
2023-04-19T09:50:21.363Z,10.86
2023-04-19T09:52:50.411Z,11.06
2023-04-19T09:55:26.859Z,11.31
2023-04-19T09:57:55.551Z,11.26
2023-04-19T10:00:23.167Z,11.41
2023-04-19T10:02:55.978Z,11.56
2023-04-19T10:05:24.776Z,11.39
2023-04-19T10:07:54.898Z,11.19
2023-04-19T10:10:33.297Z,11.25
2023-04-19T10:13:20.198Z,11.44
2023-04-19T10:15:53.606Z,11.28
2023-04-19T10:18:24.204Z,10.92
2023-04-19T10:21:01.197Z,10.97
2023-04-19T10:23:28.222Z,11.18
2023-04-19T10:25:58.650Z,11.36
2023-04-19T10:28:28.513Z,11.66
2023-04-19T10:31:03.317Z,11.84
2023-04-19T10:33:32.118Z,11.86
2023-04-19T10:35:59.957Z,11.96
2023-04-19T10:38:44.577Z,11.91
2023-04-19T10:41:18.563Z,12.12
2023-04-19T10:44:09.332Z,12.07
2023-04-19T10:46:38.461Z,12.38
2023-04-19T10:49:06.142Z,12.54
2023-04-19T10:51:35.813Z,12.68
2023-04-19T10:54:07.063Z,12.41
2023-04-19T10:56:36.551Z,12.26
2023-04-19T10:59:07.790Z,12.16
2023-04-19T11:01:37.469Z,12.22
2023-04-19T11:04:04.441Z,12.41
2023-04-19T11:06:32.400Z,12.14
2023-04-19T11:09:00.732Z,12.08
2023-04-19T11:11:27.538Z,11.92
2023-04-19T11:13:58.049Z,12.04
2023-04-19T11:16:34.302Z,11.89
2023-04-19T11:19:15.954Z,11.77
2023-04-19T11:21:42.840Z,11.90
2023-04-19T11:24:10.046Z,12.12
2023-04-19T11:26:36.925Z,12.08
2023-04-19T11:29:04.704Z,12.33
2023-04-19T11:31:34.348Z,12.35
2023-04-19T11:34:08.213Z,12.30
2023-04-19T11:36:37.160Z,12.40
2023-04-19T11:39:07.007Z,12.57
2023-04-19T11:41:39.922Z,12.64
2023-04-19T11:44:24.872Z,12.48
2023-04-19T11:47:02.626Z,12.12
2023-04-19T11:49:31.146Z,12.03
2023-04-19T11:51:59.681Z,12.09
2023-04-19T11:54:27.112Z,12.10
2023-04-19T11:57:09.067Z,12.04
2023-04-19T11:59:36.785Z,11.79
2023-04-19T12:02:13.159Z,12.04
2023-04-19T12:04:41.095Z,11.94
2023-04-19T12:07:08.165Z,11.88
2023-04-19T12:09:36.475Z,11.50
2023-04-19T12:12:03.781Z,11.39
2023-04-19T12:14:31.708Z,10.93
2023-04-19T12:17:12.391Z,10.67
2023-04-19T12:19:48.445Z,10.37
2023-04-19T12:22:17.709Z,10.38
2023-04-19T12:24:44.487Z,10.58
2023-04-19T12:27:11.653Z,10.39
2023-04-19T12:29:39.320Z,10.61
2023-04-19T12:32:06.592Z,10.59
2023-04-19T12:34:33.465Z,10.58
2023-04-19T12:37:00.272Z,10.51
2023-04-19T12:39:27.030Z,10.57
2023-04-19T12:41:53.728Z,10.37
2023-04-19T12:44:20.497Z,10.62
2023-04-19T12:46:47.265Z,10.34
2023-04-19T12:49:14.328Z,10.45
2023-04-19T12:51:42.800Z,10.60
2023-04-19T12:54:09.666Z,10.52
2023-04-19T12:56:36.510Z,10.76
2023-04-19T12:59:03.380Z,10.85
2023-04-19T13:01:30.260Z,10.74
2023-04-19T13:03:59.359Z,10.76
2023-04-19T13:06:26.589Z,10.85
2023-04-19T13:08:54.881Z,11.04
2023-04-19T13:11:23.648Z,10.74
2023-04-19T13:13:52.436Z,10.46
2023-04-19T13:16:20.041Z,10.71
2023-04-19T13:18:47.005Z,10.54
2023-04-19T13:21:13.802Z,10.53
2023-04-19T13:23:40.699Z,10.61
2023-04-19T13:26:07.498Z,10.25
2023-04-19T13:28:36.044Z,10.47
2023-04-19T13:31:04.624Z,10.65
2023-04-19T13:33:31.355Z,10.49
2023-04-19T13:35:58.183Z,10.33
2023-04-19T13:38:25.374Z,10.35
2023-04-19T13:40:52.158Z,10.50
2023-04-19T13:43:18.981Z,10.16
2023-04-19T13:45:46.403Z,10.18
2023-04-19T13:48:13.292Z,10.11
2023-04-19T13:50:40.044Z,9.84
2023-04-19T13:53:07.000Z,9.97
2023-04-19T13:55:33.852Z,9.75
2023-04-19T13:58:00.980Z,9.67
2023-04-19T14:00:28.252Z,9.99
2023-04-19T14:02:56.511Z,9.91
2023-04-19T14:05:23.554Z,9.96
2023-04-19T14:07:50.416Z,9.92
2023-04-19T14:10:17.231Z,9.99
2023-04-19T14:12:45.119Z,9.92
2023-04-19T14:15:12.221Z,9.64
2023-04-19T14:17:39.091Z,9.63
2023-04-19T14:20:07.501Z,9.46
2023-04-19T14:22:35.544Z,9.35
2023-04-19T14:25:04.114Z,9.19
2023-04-19T14:27:31.150Z,9.38
2023-04-19T14:29:58.049Z,9.29
2023-04-19T14:32:27.026Z,9.30
2023-04-19T14:34:54.993Z,9.19
2023-04-19T14:37:22.525Z,9.23
2023-04-19T14:39:49.214Z,9.27
2023-04-19T14:42:16.038Z,9.25
2023-04-19T14:44:42.933Z,9.32
2023-04-19T14:47:09.637Z,9.20
2023-04-19T14:49:36.347Z,9.14
2023-04-19T14:52:04.063Z,9.12
2023-04-19T14:54:30.929Z,9.02
2023-04-19T14:56:57.693Z,9.08
2023-04-19T14:59:24.443Z,8.90
2023-04-19T15:01:51.192Z,8.97
2023-04-19T15:04:18.046Z,8.89
2023-04-19T15:06:45.084Z,9.01
2023-04-19T15:09:11.770Z,9.00
2023-04-19T15:11:38.657Z,8.96
2023-04-19T15:14:05.336Z,8.97
2023-04-19T15:16:32.238Z,9.06
2023-04-19T15:18:59.095Z,8.80
2023-04-19T15:21:25.900Z,8.94
2023-04-19T15:23:52.808Z,8.90
2023-04-19T15:26:19.644Z,8.70
2023-04-19T15:28:46.477Z,8.80
2023-04-19T15:31:13.426Z,8.78
2023-04-19T15:33:40.289Z,8.78
2023-04-19T15:36:07.176Z,8.85
2023-04-19T15:38:33.945Z,8.93
2023-04-19T15:41:01.669Z,8.89
2023-04-19T15:43:28.683Z,8.87
2023-04-19T15:45:55.809Z,8.75
2023-04-19T15:48:22.876Z,8.70
2023-04-19T15:50:49.710Z,8.57
2023-04-19T15:53:16.965Z,8.58
2023-04-19T15:55:44.340Z,8.57
2023-04-19T15:58:11.076Z,8.53
2023-04-19T16:00:37.936Z,8.38
2023-04-19T16:03:04.983Z,8.36
2023-04-19T16:05:31.852Z,8.26
2023-04-19T16:08:07.209Z,8.02
2023-04-19T16:10:34.546Z,7.91
2023-04-19T16:13:03.239Z,8.03
2023-04-19T16:15:29.882Z,8.09
2023-04-19T16:17:56.647Z,7.94
2023-04-19T16:20:23.868Z,7.96
2023-04-19T16:22:50.782Z,7.95
2023-04-19T16:25:17.932Z,7.91
2023-04-19T16:27:46.439Z,7.90
2023-04-19T16:30:14.413Z,7.87
2023-04-19T16:32:41.978Z,7.93
2023-04-19T16:35:09.749Z,7.94
2023-04-19T16:37:36.670Z,7.81
2023-04-19T16:40:09.953Z,7.61
2023-04-19T16:42:38.300Z,7.69
2023-04-19T16:45:05.768Z,7.57
2023-04-19T16:47:33.230Z,7.33
2023-04-19T16:50:01.073Z,7.19
2023-04-19T16:52:29.220Z,7.27
2023-04-19T16:54:56.091Z,7.24
2023-04-19T16:57:23.314Z,7.28
2023-04-19T16:59:50.624Z,7.43
2023-04-19T17:02:17.777Z,7.38
2023-04-19T17:04:44.942Z,7.26
2023-04-19T17:07:12.530Z,7.11
2023-04-19T17:09:39.474Z,7.06
2023-04-19T17:12:06.581Z,7.08
2023-04-19T17:14:36.650Z,6.94
2023-04-19T17:17:03.360Z,7.13
2023-04-19T17:19:30.082Z,7.20
2023-04-19T17:21:58.731Z,7.10
2023-04-19T17:24:25.519Z,7.14
2023-04-19T17:26:52.260Z,6.90
2023-04-19T17:29:19.114Z,7.06
2023-04-19T17:31:46.150Z,6.95
2023-04-19T17:34:12.795Z,6.77
2023-04-19T17:36:39.443Z,6.82
2023-04-19T17:39:07.979Z,6.63
2023-04-19T17:41:34.724Z,6.67
2023-04-19T17:44:01.453Z,6.66
2023-04-19T17:46:28.170Z,6.75
2023-04-19T17:48:55.651Z,6.62
2023-04-19T17:51:22.430Z,6.62
2023-04-19T17:53:49.125Z,6.56
2023-04-19T17:56:15.809Z,6.54
2023-04-19T17:58:42.622Z,6.47
2023-04-19T18:01:10.576Z,6.42
2023-04-19T18:03:38.074Z,6.40
2023-04-19T18:06:05.112Z,6.29
2023-04-19T18:08:31.798Z,5.97
2023-04-19T18:10:58.565Z,5.78
2023-04-19T18:13:25.400Z,5.84
2023-04-19T18:15:52.046Z,6.00
2023-04-19T18:18:18.889Z,6.00
2023-04-19T18:20:46.605Z,6.01
2023-04-19T18:23:15.075Z,5.57
2023-04-19T18:25:44.589Z,5.96
2023-04-19T18:28:13.053Z,6.06
2023-04-19T18:30:43.211Z,6.02
2023-04-19T18:33:12.736Z,5.99
2023-04-19T18:35:44.224Z,5.93
2023-04-19T18:38:15.582Z,6.01
2023-04-19T18:40:45.515Z,5.82
2023-04-19T18:43:15.169Z,5.67
2023-04-19T18:45:46.338Z,5.69
2023-04-19T18:48:14.332Z,5.70
2023-04-19T18:50:44.731Z,5.71
2023-04-19T18:53:13.315Z,5.66
2023-04-19T18:55:41.430Z,5.64
2023-04-19T18:58:11.539Z,5.56
2023-04-19T19:00:44.116Z,5.61
2023-04-19T19:03:49.909Z,5.52
2023-04-19T19:06:11.831Z,5.56
2023-04-19T19:08:42.922Z,5.52
2023-04-19T19:11:37.299Z,5.48
2023-04-19T19:14:05.825Z,5.42
2023-04-19T19:16:50.975Z,5.42
2023-04-19T19:19:23.791Z,5.40
2023-04-19T19:21:55.366Z,5.51
2023-04-19T19:24:27.936Z,5.46
2023-04-19T19:27:06.648Z,5.37
2023-04-19T19:29:38.272Z,5.39
2023-04-19T19:32:09.744Z,5.42
2023-04-19T19:34:51.249Z,5.43
2023-04-19T19:37:24.139Z,5.35
2023-04-19T19:39:56.345Z,5.42
2023-04-19T19:42:26.632Z,5.38
2023-04-19T19:44:56.116Z,5.42
2023-04-19T19:47:36.004Z,5.31
2023-04-19T19:52:41.905Z,5.12
2023-04-19T19:55:13.011Z,5.28
2023-04-19T19:58:14.027Z,5.19
2023-04-19T20:00:45.001Z,5.21
2023-04-19T20:03:16.738Z,5.21
2023-04-19T20:05:53.723Z,5.26
2023-04-19T20:08:26.554Z,5.25
2023-04-19T20:10:55.021Z,5.17
2023-04-19T20:13:21.891Z,5.16
2023-04-19T20:15:48.565Z,5.27
2023-04-19T20:18:15.445Z,5.25
2023-04-19T20:20:42.081Z,5.22
2023-04-19T20:23:08.756Z,5.10
2023-04-19T20:25:35.430Z,5.09
2023-04-19T20:28:02.319Z,5.11
2023-04-19T20:30:29.011Z,5.22
2023-04-19T20:32:55.801Z,5.14
2023-04-19T20:35:23.232Z,5.08
2023-04-19T20:37:50.961Z,5.04
2023-04-19T20:40:17.884Z,5.13
2023-04-19T20:42:45.227Z,5.08
2023-04-19T20:45:12.949Z,4.92
2023-04-19T20:47:41.294Z,4.91
2023-04-19T20:50:08.814Z,5.01
2023-04-19T20:52:35.809Z,5.00
2023-04-19T20:55:02.481Z,5.05
2023-04-19T20:57:29.164Z,5.10
2023-04-19T20:59:55.794Z,5.07
2023-04-19T21:02:22.501Z,5.04
2023-04-19T21:04:49.166Z,5.01
2023-04-19T21:07:16.031Z,4.95
2023-04-19T21:09:42.650Z,5.10
2023-04-19T21:12:09.305Z,5.07
2023-04-19T21:14:36.023Z,4.90
2023-04-19T21:17:03.562Z,4.95
2023-04-19T21:19:30.328Z,4.96
2023-04-19T21:21:58.002Z,5.02
2023-04-19T21:24:24.781Z,5.03
2023-04-19T21:26:51.459Z,5.00
2023-04-19T21:29:18.547Z,5.04
2023-04-19T21:31:45.556Z,4.95
2023-04-19T21:34:12.161Z,5.00
2023-04-19T21:36:38.711Z,5.00
2023-04-19T21:39:05.421Z,4.96
2023-04-19T21:41:32.001Z,4.82
2023-04-19T21:43:58.641Z,4.98
2023-04-19T21:46:25.486Z,4.99
2023-04-19T21:48:53.596Z,4.99
2023-04-19T21:51:22.251Z,5.07
2023-04-19T21:53:48.871Z,5.08
2023-04-19T21:56:15.450Z,5.13
2023-04-19T21:58:42.047Z,5.12
2023-04-19T22:01:08.651Z,5.05
2023-04-19T22:03:35.517Z,5.10
2023-04-19T22:06:02.656Z,5.07
2023-04-19T22:08:31.540Z,5.17
2023-04-19T22:11:00.428Z,4.98
2023-04-19T22:13:28.439Z,4.86
2023-04-19T22:15:57.229Z,4.96
2023-04-19T22:18:24.215Z,4.89
2023-04-19T22:20:52.187Z,4.99
2023-04-19T22:23:19.126Z,4.93
2023-04-19T22:25:46.055Z,4.98
2023-04-19T22:28:12.861Z,4.87
2023-04-19T22:30:39.621Z,4.94
2023-04-19T22:33:06.607Z,4.98
2023-04-19T22:35:33.320Z,4.99
2023-04-19T22:37:59.910Z,5.02
2023-04-19T22:40:26.475Z,4.96
2023-04-19T22:42:53.050Z,4.88
2023-04-19T22:45:19.682Z,4.90
2023-04-19T22:47:46.464Z,4.82
2023-04-19T22:50:13.160Z,4.88
2023-04-19T22:52:40.908Z,4.81
2023-04-19T22:55:07.859Z,4.83
2023-04-19T22:57:34.466Z,4.86
2023-04-19T23:00:01.126Z,4.80
2023-04-19T23:02:27.992Z,4.83
2023-04-19T23:04:54.740Z,4.87
2023-04-19T23:07:22.098Z,4.88
2023-04-19T23:09:49.836Z,4.86
2023-04-19T23:12:17.560Z,4.88
2023-04-19T23:14:44.339Z,4.81
2023-04-19T23:17:11.125Z,4.91
2023-04-19T23:19:38.933Z,4.91
2023-04-19T23:22:05.805Z,4.94
2023-04-19T23:24:32.556Z,4.93
2023-04-19T23:26:59.294Z,4.91
2023-04-19T23:29:26.130Z,4.87
2023-04-19T23:31:52.928Z,4.88
2023-04-19T23:34:19.702Z,4.93
2023-04-19T23:36:46.521Z,4.97
2023-04-19T23:39:13.272Z,4.98
2023-04-19T23:41:40.098Z,4.98
2023-04-19T23:44:06.902Z,4.95
2023-04-19T23:46:33.675Z,4.92
2023-04-19T23:49:00.491Z,4.82
2023-04-19T23:51:27.246Z,4.78
2023-04-19T23:53:54.008Z,4.81
2023-04-19T23:56:20.562Z,4.70
2023-04-19T23:58:47.160Z,4.82
